• Join FlightAware (Why Join?)
  • Login
  • US Flag 
10:24PM EDT


 

Airport Tracker/Info


-or-


 

Live Flight TrackerFlight Track Log ✈ AWE1693 ✈ 04-May-2013 ✈ KCLT - TKPK / SKB

Flight Track Log - Related Links

Times and Time Zones

All times are in EDT time to prevent confusion due to time zone crossing. See the AWE1693 flight status page for this flight to view local times or setup timezone preferences in your user account.

Time Position Orientation Groundspeed Altitude Reporting Facility
EDT Latitude Longitude Course Direction KTS MPH feet Rate Location/Type
12:13PM 35.2289 -80.9572 165° South 170 196 1,600  Level Atlanta Center
12:14PM 35.2864 -81.0058 325° Northwest 238 274 3,000 1,560 Climbing Atlanta Center
12:15PM 35.2867 -81.0950 270° West 301 346 5,200 2,280 Climbing Atlanta Center
12:16PM 34.9519 -80.6086 175° South  Level Estimated
12:16PM 35.2692 -81.1567 251° West 288 331 6,800  Level Atlanta Center
12:16PM 35.2575 -81.1925 248° West 294 338 7,900 2,400 Climbing Atlanta Center
12:17PM 34.8644 -80.4957 180° South  Level Estimated
12:17PM 35.2164 -81.2119 201° Southwest 275 316 9,200  Level Atlanta Center
12:17PM 35.1867 -81.1975 158° South 259 298 10,100 1,380 Climbing Atlanta Center
12:18PM 34.7768 -80.3829 165° South  Level Estimated
12:18PM 35.1444 -81.1711 153° Southeast 284 327 10,600  Level Atlanta Center
12:18PM 35.1147 -81.1519 152° Southeast 306 352 11,400 2,160 Climbing Atlanta Center
12:19PM 35.0681 -81.1256 155° Southeast 340 391 12,800 1,860 Climbing Atlanta Center
12:20PM 34.9856 -81.0728 152° Southeast 340 391 14,400 1,560 Climbing Atlanta Center
12:21PM 34.8967 -81.0175 153° Southeast 340 391 16,000 1,500 Climbing Atlanta Center
12:23PM 34.7389 -80.9219 154° Southeast 375 432 18,600 1,500 Climbing Jacksonville Center
12:24PM 34.6344 -80.8992 170° South 375 432 20,200 1,500 Climbing Jacksonville Center
12:25PM 34.5297 -80.8889 175° South 375 432 21,700 1,200 Climbing Jacksonville Center
12:26PM 34.4275 -80.8736 173° South 400 460 22,700 1,260 Climbing Jacksonville Center
12:27PM 34.3186 -80.8586 174° South 400 460 24,300 1,140 Climbing Jacksonville Center
12:28PM 34.1972 -80.8389 172° South 405 466 25,000 300 Climbing Jacksonville Center
12:29PM 34.0783 -80.8267 175° South 419 482 25,000  Level Jacksonville Center
12:30PM 33.9486 -80.8072 173° South 447 514 25,000  Level Jacksonville Center
12:31PM 33.8306 -80.7350 153° Southeast 454 522 25,000 180 Level Jacksonville Center
12:32PM 33.7206 -80.6503 147° Southeast 465 535 25,400 1,680 Climbing Jacksonville Center
12:33PM 33.6147 -80.5706 148° Southeast 465 535 28,400 2,040 Climbing Jacksonville Center
12:34PM 33.5131 -80.4961 149° Southeast 445 512 29,500 1,200 Climbing Jacksonville Center
12:35PM 33.4136 -80.4217 148° Southeast 433 498 30,800 1,200 Climbing Jacksonville Center
12:36PM 33.3161 -80.3497 148° Southeast 428 493 31,900 1,200 Climbing Jacksonville Center
12:37PM 33.2228 -80.2756 146° Southeast 417 480 33,200 840 Climbing Jacksonville Center
12:38PM 33.1639 -80.1581 121° Southeast 399 459 33,600 420 Climbing Jacksonville Center
12:39PM 33.1178 -80.0431 116° Southeast 407 468 34,100 480 Climbing Jacksonville Center
12:40PM 33.0667 -79.9156 116° Southeast 407 468 34,600 420 Climbing Jacksonville Center
12:41PM 33.0075 -79.7939 120° Southeast 413 475 35,000 180 Climbing Jacksonville Center
12:42PM 32.9397 -79.6750 124° Southeast 425 489 35,000  Level Jacksonville Center
12:43PM 32.8617 -79.5664 131° Southeast 430 495 35,000  Level Jacksonville Center
12:44PM 32.7775 -79.4608 133° Southeast 435 501 35,000  Level Jacksonville Center
12:45PM 32.6933 -79.3578 134° Southeast 435 501 35,000  Level Jacksonville Center
12:46PM 32.6069 -79.2578 136° Southeast 435 501 35,000  Level Jacksonville Center
12:47PM 32.5186 -79.1628 138° Southeast 428 493 35,000  Level Jacksonville Center
12:48PM 32.4303 -79.0678 138° Southeast 428 493 35,000  Level Jacksonville Center
12:49PM 32.3558 -78.9531 128° Southeast 433 498 35,000  Level Jacksonville Center
12:50PM 32.2933 -78.8278 121° Southeast 438 504 35,000  Level Jacksonville Center
12:51PM 32.2308 -78.7006 120° Southeast 438 504 35,000  Level Jacksonville Center
12:52PM 32.1681 -78.5758 121° Southeast 438 504 35,000  Level Jacksonville Center
12:53PM 32.1053 -78.4511 121° Southeast 438 504 35,000  Level Jacksonville Center
12:54PM 32.0425 -78.3244 120° Southeast 438 504 35,000  Level Jacksonville Center
12:55PM 31.9681 -78.1764 121° Southeast 460 529 35,000  Level Jacksonville Center
12:56PM 31.9031 -78.0572 123° Southeast 460 529 35,000  Level Jacksonville Center
12:57PM 31.8394 -77.9261 120° Southeast 454 522 35,000  Level Jacksonville Center
12:58PM 31.7719 -77.8028 123° Southeast 443 510 35,000  Level Jacksonville Center
12:59PM 31.7083 -77.6744 120° Southeast 450 518 35,000  Level Jacksonville Center
01:00PM 31.6444 -77.5439 120° Southeast 456 525 35,000  Level Jacksonville Center
01:01PM 31.5767 -77.4233 123° Southeast 446 513 35,000  Level Jacksonville Center
01:02PM 31.5106 -77.2958 121° Southeast 458 527 35,000  Level Jacksonville Center
01:03PM 31.4442 -77.1633 120° Southeast 463 533 35,000  Level Jacksonville Center
01:04PM 31.3758 -77.0386 123° Southeast 458 527 35,000  Level Jacksonville Center
01:05PM 31.3500 -77.0000 140° Southeast 448 516 35,000  Level New York Oceanic (ODAPS)
01:11PM 30.6773 -76.3538 141° Southeast 448 516 35,000  Level FlightAware Transoceanic
01:12PM 30.5810 -76.2622 141° Southeast 448 516 35,000  Level FlightAware Transoceanic
01:13PM 30.4845 -76.1708 141° Southeast 448 516 35,000  Level FlightAware Transoceanic
01:14PM 30.3881 -76.0796 141° Southeast 448 516 35,000  Level FlightAware Transoceanic
01:15PM 30.2915 -75.9885 141° Southeast 448 516 35,000  Level FlightAware Transoceanic
01:16PM 30.1949 -75.8977 141° Southeast 448 516 35,000  Level FlightAware Transoceanic
01:17PM 30.0982 -75.8070 141° Southeast 448 516 35,000  Level FlightAware Transoceanic
01:18PM 30.0015 -75.7165 141° Southeast 448 516 35,000  Level FlightAware Transoceanic
01:19PM 29.9047 -75.6261 141° Southeast 448 516 35,000  Level FlightAware Transoceanic
01:20PM 29.8078 -75.5360 141° Southeast 448 516 35,000  Level FlightAware Transoceanic
01:21PM 29.7109 -75.4460 141° Southeast 448 516 35,000  Level FlightAware Transoceanic
01:22PM 29.6139 -75.3562 141° Southeast 448 516 35,000  Level FlightAware Transoceanic
01:23PM 29.5169 -75.2666 141° Southeast 448 516 35,000  Level FlightAware Transoceanic
01:24PM 29.4198 -75.1771 141° Southeast 448 516 35,000  Level FlightAware Transoceanic
01:25PM 29.3226 -75.0878 141° Southeast 448 516 35,000  Level FlightAware Transoceanic
01:26PM 29.2254 -74.9987 141° Southeast 448 516 35,000  Level FlightAware Transoceanic
01:27PM 29.1281 -74.9098 141° Southeast 448 516 35,000  Level FlightAware Transoceanic
01:28PM 29.0308 -74.8210 141° Southeast 448 516 35,000  Level FlightAware Transoceanic
01:29PM 28.9334 -74.7324 142° Southeast 448 516 35,000  Level FlightAware Transoceanic
01:30PM 28.8359 -74.6439 142° Southeast 448 516 35,000  Level FlightAware Transoceanic
01:31PM 28.7384 -74.5556 142° Southeast 448 516 35,000  Level FlightAware Transoceanic
01:32PM 28.6408 -74.4675 142° Southeast 448 516 35,000  Level FlightAware Transoceanic
01:33PM 28.5432 -74.3795 142° Southeast 448 516 35,000  Level FlightAware Transoceanic
01:34PM 28.4455 -74.2918 142° Southeast 448 516 35,000  Level FlightAware Transoceanic
01:35PM 28.3478 -74.2041 142° Southeast 448 516 35,000  Level FlightAware Transoceanic
01:36PM 28.2500 -74.1167 149° Southeast 448 516 35,000  Level FlightAware Transoceanic
01:36PM 28.2500 -74.1167 149° Southeast 482 555 35,000  Level New York Oceanic (ODAPS)
01:37PM 28.1345 -74.0389 149° Southeast 448 516 35,000  Level FlightAware Transoceanic
01:38PM 28.0189 -73.9614 149° Southeast 448 516 35,000  Level FlightAware Transoceanic
01:39PM 27.9033 -73.8840 149° Southeast 448 516 35,000  Level FlightAware Transoceanic
01:40PM 27.7877 -73.8067 149° Southeast 448 516 35,000  Level FlightAware Transoceanic
01:41PM 27.6720 -73.7297 149° Southeast 448 516 35,000  Level FlightAware Transoceanic
01:42PM 27.5563 -73.6528 150° Southeast 482 555 35,000  Level FlightAware Transoceanic
01:43PM 27.4405 -73.5760 150° Southeast 482 555 35,000  Level FlightAware Transoceanic
01:44PM 27.3247 -73.4995 150° Southeast 482 555 35,000  Level FlightAware Transoceanic
01:45PM 27.2088 -73.4230 150° Southeast 482 555 35,000  Level FlightAware Transoceanic
01:46PM 27.0929 -73.3468 150° Southeast 482 555 35,000  Level FlightAware Transoceanic
01:47PM 26.9770 -73.2707 150° Southeast 482 555 35,000  Level FlightAware Transoceanic
01:48PM 26.8610 -73.1947 150° Southeast 482 555 35,000  Level FlightAware Transoceanic
01:49PM 26.7450 -73.1189 150° Southeast 482 555 35,000  Level FlightAware Transoceanic
01:50PM 26.6289 -73.0433 150° Southeast 482 555 35,000  Level FlightAware Transoceanic
01:51PM 26.5128 -72.9678 150° Southeast 482 555 35,000  Level FlightAware Transoceanic
01:52PM 26.3967 -72.8925 150° Southeast 482 555 35,000  Level FlightAware Transoceanic
01:53PM 26.2805 -72.8173 150° Southeast 482 555 35,000  Level FlightAware Transoceanic
01:54PM 26.1643 -72.7422 150° Southeast 482 555 35,000  Level FlightAware Transoceanic
01:55PM 26.0480 -72.6674 150° Southeast 482 555 35,000  Level FlightAware Transoceanic
01:56PM 25.9317 -72.5926 150° Southeast 482 555 35,000  Level FlightAware Transoceanic
01:57PM 25.8154 -72.5181 150° Southeast 482 555 35,000  Level FlightAware Transoceanic
01:58PM 25.6990 -72.4436 150° Southeast 482 555 35,000  Level FlightAware Transoceanic
01:59PM 25.5826 -72.3693 150° Southeast 482 555 35,000  Level FlightAware Transoceanic
02:00PM 25.4662 -72.2952 150° Southeast 482 555 35,000  Level FlightAware Transoceanic
02:01PM 25.3497 -72.2212 150° Southeast 482 555 35,000  Level FlightAware Transoceanic
02:02PM 25.2332 -72.1473 150° Southeast 482 555 35,000  Level FlightAware Transoceanic
02:03PM 25.1166 -72.0736 150° Southeast 482 555 35,000  Level FlightAware Transoceanic
02:04PM 25.0000 -72.0000 147° Southeast 482 555 35,000  Level FlightAware Transoceanic
02:05PM 24.8936 -71.9236 147° Southeast 482 555 35,000  Level FlightAware Transoceanic
02:06PM 24.7872 -71.8472 147° Southeast 482 555 35,000  Level FlightAware Transoceanic
02:06PM 24.6653 -71.9525 147° Southeast 470 541 35,000  Level Miami Center
02:07PM 24.6807 -71.7710 147° Southeast 482 555 35,000  Level FlightAware Transoceanic
02:07PM 24.5436 -71.9322 171° South 465 535 35,000  Level Miami Center
02:08PM 24.5742 -71.6950 147° Southeast 482 555 35,000  Level FlightAware Transoceanic
02:08PM 24.4244 -71.8686 154° Southeast 460 529 35,000  Level Miami Center
02:09PM 24.4676 -71.6190 147° Southeast 482 555 35,000  Level FlightAware Transoceanic
02:09PM 24.3206 -71.7656 138° Southeast 470 541 35,000  Level Miami Center
02:10PM 24.2228 -71.6514 133° Southeast 485 558 35,000  Level Miami Center
02:11PM 24.1208 -71.5442 136° Southeast 497 572 35,000  Level Miami Center
02:12PM 24.0231 -71.4369 135° Southeast 497 572 35,000  Level Miami Center
02:13PM 23.9250 -71.3275 134° Southeast 503 579 35,000  Level Miami Center
02:14PM 23.8256 -71.2344 139° Southeast 489 563 35,000  Level Miami Center
02:15PM 23.7272 -71.1231 134° Southeast 489 563 35,000  Level Miami Center
02:16PM 23.6292 -71.0167 135° Southeast 489 563 35,000  Level Miami Center
02:17PM 23.5311 -70.9103 135° Southeast 498 573 35,000  Level Miami Center
02:18PM 23.4289 -70.8042 136° Southeast 503 579 35,000  Level Miami Center
02:19PM 23.3306 -70.6981 135° Southeast 503 579 35,000  Level Miami Center
02:20PM 23.2303 -70.5944 136° Southeast 497 572 35,100  Climbing Miami Center
02:21PM 23.1319 -70.4911 136° Southeast 497 572 35,000 -60 Descending Miami Center
02:22PM 23.0317 -70.3856 136° Southeast 502 578 35,000  Level Miami Center
02:23PM 22.9333 -70.2869 137° Southeast 496 571 35,000  Level Miami Center
02:24PM 22.8369 -70.1814 135° Southeast 496 571 35,000  Level Miami Center
02:25PM 22.7344 -70.0767 137° Southeast 501 577 35,000  Level Miami Center
02:26PM 22.6336 -69.9717 136° Southeast 501 577 35,000  Level Miami Center
02:27PM 22.5328 -69.8672 136° Southeast 501 577 35,000  Level Miami Center
02:28PM 22.4344 -69.7669 137° Southeast 501 577 35,000  Level Miami Center
02:29PM 22.3336 -69.6625 136° Southeast 501 577 35,000  Level Miami Center
02:30PM 22.2347 -69.5561 135° Southeast 501 577 35,000  Level Miami Center
02:31PM 22.1339 -69.4564 137° Southeast 501 577 35,000  Level Miami Center
02:32PM 22.0353 -69.3547 136° Southeast 496 571 35,000  Level Miami Center
02:33PM 21.9386 -69.2553 136° Southeast 496 571 35,000  Level Miami Center
02:34PM 21.8353 -69.1517 137° Southeast 496 571 35,000  Level Miami Center
02:35PM 21.7303 -69.0508 138° Southeast 496 571 35,000 360 Level Miami Center
02:36PM 21.6244 -68.9389 135° Southeast 496 571 35,800 660 Climbing Miami Center
02:37PM 21.5233 -68.8358 137° Southeast 496 571 36,400 600 Climbing Miami Center
02:38PM 21.4222 -68.7350 137° Southeast 501 577 37,000 300 Climbing Miami Center
02:39PM 21.3208 -68.6344 137° Southeast 501 577 37,000  Level Miami Center
02:40PM 21.2178 -68.5342 138° Southeast 501 577 37,000  Level Miami Center
02:41PM 21.1228 -68.4336 135° Southeast 501 577 37,000  Level Miami Center
02:42PM 21.0217 -68.3378 138° Southeast 496 571 37,000  Level Miami Center
02:43PM 20.9283 -68.2328 134° Southeast 490 564 37,000  Level Miami Center
02:44PM 20.8406 -68.1167 129° Southeast 495 570 37,000  Level Miami Center
02:45PM 20.7550 -68.0028 129° Southeast 501 577 37,000  Level Miami Center
02:46PM 20.6692 -67.8822 127° Southeast 501 577 37,000  Level Miami Center
02:47PM 20.5872 -67.7639 126° Southeast 506 582 37,000  Level Miami Center
02:48PM 20.4972 -67.6483 130° Southeast 506 582 37,000  Level Miami Center
02:49PM 20.4833 -67.6000 107° East 500 575 37,000  Level San Juan Center
02:50PM 20.4000 -67.4833 127° Southeast 500 575 37,000  Level San Juan Center
02:51PM 20.3000 -67.3667 132° Southeast 500 575 37,000  Level San Juan Center
02:53PM 20.1333 -67.1333 127° Southeast 510 587 37,000  Level San Juan Center
02:54PM 20.0500 -67.0167 127° Southeast 510 587 37,000  Level San Juan Center
02:55PM 19.9667 -66.9000 127° Southeast 500 575 37,000  Level San Juan Center
02:56PM 19.8667 -66.7833 132° Southeast 500 575 37,000  Level San Juan Center
02:57PM 19.7833 -66.6667 127° Southeast 500 575 37,000  Level San Juan Center
02:58PM 19.7000 -66.5500 127° Southeast 490 564 37,000  Level San Juan Center
02:59PM 19.6167 -66.4333 127° Southeast 500 575 37,000  Level San Juan Center
03:00PM 19.5333 -66.3167 127° Southeast 490 564 37,000  Level San Juan Center
03:01PM 19.4500 -66.2000 127° Southeast 500 575 37,000  Level San Juan Center
03:02PM 19.3667 -66.1000 131° Southeast 490 564 37,000  Level San Juan Center
03:03PM 19.2667 -65.9833 132° Southeast 490 564 37,000  Level San Juan Center
03:04PM 19.1833 -65.8667 127° Southeast 490 564 37,000  Level San Juan Center
03:05PM 19.1000 -65.7333 123° Southeast 490 564 37,000  Level San Juan Center
03:06PM 19.0167 -65.6167 127° Southeast 490 564 37,000  Level San Juan Center
03:07PM 18.9167 -65.5000 132° Southeast 490 564 37,000  Level San Juan Center
03:08PM 18.8333 -65.4000 131° Southeast 490 564 37,000  Level San Juan Center
03:09PM 18.7500 -65.2833 127° Southeast 490 564 37,000  Level San Juan Center
03:10PM 18.6667 -65.1667 127° Southeast 500 575 37,000  Level San Juan Center
03:11PM 18.5833 -65.0500 127° Southeast 500 575 37,100  Climbing San Juan Center
03:12PM 18.5000 -64.9500 131° Southeast 500 575 37,000 -60 Descending San Juan Center
03:13PM 18.4000 -64.8333 132° Southeast 500 575 37,000  Level San Juan Center
03:14PM 18.3167 -64.7167 127° Southeast 490 564 37,000 -60 Level San Juan Center
03:15PM 18.2333 -64.6000 127° Southeast 480 552 36,900 -1,740 Descending San Juan Center
03:16PM 18.1500 -64.5000 131° Southeast 480 552 33,600 -3,060 Descending San Juan Center
03:17PM 18.0667 -64.3833 127° Southeast 490 564 30,800 -2,580 Descending San Juan Center
03:18PM 17.9833 -64.2833 131° Southeast 490 564 28,500 -2,340 Descending San Juan Center
03:19PM 17.9000 -64.1667 127° Southeast 470 541 26,200 -2,220 Descending San Juan Center
03:20PM 17.8167 -64.0667 131° Southeast 450 518 24,100 -2,100 Descending San Juan Center
03:21PM 17.7333 -63.9667 131° Southeast 440 506 22,000 -2,040 Descending San Juan Center
03:22PM 17.6500 -63.8667 131° Southeast 430 495 20,000 -2,040 Descending San Juan Center
03:23PM 17.5833 -63.7667 125° Southeast 420 483 17,900 -1,980 Descending San Juan Center
03:24PM 17.5167 -63.6833 130° Southeast 410 472 16,100 -1,740 Descending San Juan Center
03:25PM 17.4667 -63.5833 118° Southeast 400 460 14,400 -1,740 Descending San Juan Center
03:26PM 17.4500 -63.4667 98° East 380 437 12,700 -1,800 Descending San Juan Center
03:27PM 17.4167 -63.3667 109° East 370 426 10,800 -2,040 Descending San Juan Center
03:28PM 17.4000 -63.2500 98° East 370 426 8,700 -2,280 Descending San Juan Center
03:29PM 17.3833 -63.1500 100° East 370 426 6,300 -2,400 Descending San Juan Center
03:31PM 17.3382 -62.9765 118° Southeast  Level FlightAware Approximate
03:38PM 17.3112 -62.7187 North  Level Estimated
03:39PM 17.3112 -62.7187 North  Level Estimated
03:40PM 17.3112 -62.7187 North  Level Estimated
03:41PM 17.3112 -62.7187 North  Level Estimated